San Adrian, Spain
Current Conditions -  °F | °C
As of 11:00 AM on Monday 22 Dec 2014 (Local Time) from LELO Reporting Station
Overcast Overcast  
Wind Chill: 36°   Ceiling: 1500
Heat Index: 36°   Visibility: 4mi
Dew Point: 36°   Wind: 2mph
Humidity: 100%   Direction: NA
Pressure: 30.53"   Gusts: NA
Location:  42.33°N, 1.94°W
Report Text: LELO 221000Z VRB02KT 7000 SCT008 OVC015 02/02 Q1034
Loading
Personal Weather Stations






























Interactive Weather Map New forecast layout! Learn more

10-Day Weather Forecast

Advertisements
Track Severe Weather on mobile